sensor_id;sensor_type;location;lat;lon;timestamp;pressure;altitude;pressure_sealevel;temperature;humidity
46598;BME280;32318;48.858;8.252;2024-01-30T00:00:44;101683.13;;;3.09;92.80
46598;BME280;32318;48.858;8.252;2024-01-30T00:08:44;101695.22;;;2.95;92.76
46598;BME280;32318;48.858;8.252;2024-01-30T00:16:46;101695.88;;;2.83;92.75
46598;BME280;32318;48.858;8.252;2024-01-30T00:24:47;101697.03;;;2.77;93.05
46598;BME280;32318;48.858;8.252;2024-01-30T00:32:47;101702.91;;;2.65;93.38
46598;BME280;32318;48.858;8.252;2024-01-30T00:40:47;101710.28;;;2.58;93.89
46598;BME280;32318;48.858;8.252;2024-01-30T00:48:47;101708.00;;;2.50;94.06
46598;BME280;32318;48.858;8.252;2024-01-30T00:56:48;101696.91;;;2.44;93.92
46598;BME280;32318;48.858;8.252;2024-01-30T01:04:48;101707.75;;;2.38;94.12
46598;BME280;32318;48.858;8.252;2024-01-30T01:12:48;101697.53;;;2.31;93.56
46598;BME280;32318;48.858;8.252;2024-01-30T01:20:49;101699.38;;;2.29;94.26
46598;BME280;32318;48.858;8.252;2024-01-30T01:28:49;101698.59;;;2.27;94.05
46598;BME280;32318;48.858;8.252;2024-01-30T01:36:50;101697.97;;;2.22;94.28
46598;BME280;32318;48.858;8.252;2024-01-30T01:44:51;101684.00;;;2.20;93.91
46598;BME280;32318;48.858;8.252;2024-01-30T01:52:52;101678.03;;;2.16;94.13
46598;BME280;32318;48.858;8.252;2024-01-30T02:00:53;101678.03;;;2.16;94.69
46598;BME280;32318;48.858;8.252;2024-01-30T02:08:54;101680.75;;;2.15;94.07
46598;BME280;32318;48.858;8.252;2024-01-30T02:16:54;101686.88;;;2.15;94.42
46598;BME280;32318;48.858;8.252;2024-01-30T02:24:54;101683.00;;;2.23;94.45
46598;BME280;32318;48.858;8.252;2024-01-30T02:32:55;101687.13;;;2.28;94.29
46598;BME280;32318;48.858;8.252;2024-01-30T02:40:55;101687.13;;;2.28;94.30
46598;BME280;32318;48.858;8.252;2024-01-30T02:48:58;101684.50;;;2.28;94.02
46598;BME280;32318;48.858;8.252;2024-01-30T02:56:58;101682.78;;;2.27;94.22
46598;BME280;32318;48.858;8.252;2024-01-30T03:04:59;101693.72;;;2.19;93.83
46598;BME280;32318;48.858;8.252;2024-01-30T03:12:59;101684.44;;;2.11;93.82
46598;BME280;32318;48.858;8.252;2024-01-30T03:21:00;101684.84;;;2.03;94.25
46598;BME280;32318;48.858;8.252;2024-01-30T03:29:01;101679.63;;;2.01;93.49
46598;BME280;32318;48.858;8.252;2024-01-30T03:37:01;101690.22;;;2.00;93.85
46598;BME280;32318;48.858;8.252;2024-01-30T03:45:02;101684.03;;;2.01;93.99
46598;BME280;32318;48.858;8.252;2024-01-30T03:53:02;101683.25;;;1.99;94.17
46598;BME280;32318;48.858;8.252;2024-01-30T04:01:03;101687.72;;;1.97;94.07
46598;BME280;32318;48.858;8.252;2024-01-30T04:09:03;101681.63;;;1.96;94.39
46598;BME280;32318;48.858;8.252;2024-01-30T04:17:04;101680.91;;;1.93;94.40
46598;BME280;32318;48.858;8.252;2024-01-30T04:25:04;101677.94;;;1.81;93.98
46598;BME280;32318;48.858;8.252;2024-01-30T04:33:05;101682.19;;;1.84;94.02
46598;BME280;32318;48.858;8.252;2024-01-30T04:41:05;101682.41;;;1.79;93.83
46598;BME280;32318;48.858;8.252;2024-01-30T04:49:05;101679.94;;;1.76;93.85
46598;BME280;32318;48.858;8.252;2024-01-30T04:57:07;101678.28;;;1.73;94.45
46598;BME280;32318;48.858;8.252;2024-01-30T05:05:09;101687.13;;;1.72;94.35
46598;BME280;32318;48.858;8.252;2024-01-30T05:13:10;101684.69;;;1.68;94.40
46598;BME280;32318;48.858;8.252;2024-01-30T05:21:14;101693.72;;;1.62;94.37
46598;BME280;32318;48.858;8.252;2024-01-30T05:29:15;101689.59;;;1.56;94.67
46598;BME280;32318;48.858;8.252;2024-01-30T05:37:15;101707.38;;;1.51;94.67
46598;BME280;32318;48.858;8.252;2024-01-30T05:45:17;101711.84;;;1.49;94.91
46598;BME280;32318;48.858;8.252;2024-01-30T05:53:17;101702.84;;;1.55;94.94
46598;BME280;32318;48.858;8.252;2024-01-30T06:01:17;101709.53;;;1.62;95.01
46598;BME280;32318;48.858;8.252;2024-01-30T06:09:18;101712.38;;;1.58;94.87
46598;BME280;32318;48.858;8.252;2024-01-30T06:17:18;101717.75;;;1.54;95.25
46598;BME280;32318;48.858;8.252;2024-01-30T06:25:18;101706.31;;;1.55;95.26
46598;BME280;32318;48.858;8.252;2024-01-30T06:33:18;101701.97;;;1.54;95.01
46598;BME280;32318;48.858;8.252;2024-01-30T06:41:19;101706.09;;;1.41;94.77
46598;BME280;32318;48.858;8.252;2024-01-30T06:49:19;101698.41;;;1.36;94.98
46598;BME280;32318;48.858;8.252;2024-01-30T06:57:19;101704.84;;;1.29;95.52
46598;BME280;32318;48.858;8.252;2024-01-30T07:05:20;101705.78;;;1.28;96.07
46598;BME280;32318;48.858;8.252;2024-01-30T07:13:22;101727.81;;;1.25;96.53
46598;BME280;32318;48.858;8.252;2024-01-30T07:21:22;101727.75;;;1.27;96.68
46598;BME280;32318;48.858;8.252;2024-01-30T07:29:27;101721.56;;;1.28;96.75
46598;BME280;32318;48.858;8.252;2024-01-30T07:37:28;101730.09;;;1.33;96.76
46598;BME280;32318;48.858;8.252;2024-01-30T07:45:29;101731.59;;;1.39;96.63
46598;BME280;32318;48.858;8.252;2024-01-30T07:53:32;101736.78;;;1.40;96.35
46598;BME280;32318;48.858;8.252;2024-01-30T08:01:32;101739.19;;;1.47;96.34
46598;BME280;32318;48.858;8.252;2024-01-30T08:09:42;101744.94;;;1.55;96.12
46598;BME280;32318;48.858;8.252;2024-01-30T08:17:43;101746.09;;;1.68;96.70
46598;BME280;32318;48.858;8.252;2024-01-30T08:25:44;101757.00;;;1.80;96.54
46598;BME280;32318;48.858;8.252;2024-01-30T08:33:45;101766.00;;;1.95;96.83
46598;BME280;32318;48.858;8.252;2024-01-30T08:41:45;101766.28;;;2.08;96.96
46598;BME280;32318;48.858;8.252;2024-01-30T08:49:45;101773.59;;;2.20;96.79
46598;BME280;32318;48.858;8.252;2024-01-30T08:57:46;101762.50;;;2.32;96.94
46598;BME280;32318;48.858;8.252;2024-01-30T09:05:46;101773.34;;;2.44;96.57
46598;BME280;32318;48.858;8.252;2024-01-30T09:13:46;101769.22;;;2.57;96.45
46598;BME280;32318;48.858;8.252;2024-01-30T09:21:46;101775.38;;;2.75;96.20
46598;BME280;32318;48.858;8.252;2024-01-30T09:29:47;101779.66;;;2.95;95.83
46598;BME280;32318;48.858;8.252;2024-01-30T09:37:47;101776.09;;;3.14;95.59
46598;BME280;32318;48.858;8.252;2024-01-30T09:45:49;101789.28;;;3.32;95.43
46598;BME280;32318;48.858;8.252;2024-01-30T09:53:50;101781.34;;;3.49;95.24
46598;BME280;32318;48.858;8.252;2024-01-30T10:01:50;101781.06;;;3.71;95.23
46598;BME280;32318;48.858;8.252;2024-01-30T10:09:52;101793.22;;;3.91;93.93
46598;BME280;32318;48.858;8.252;2024-01-30T10:17:53;101807.31;;;4.08;92.72
46598;BME280;32318;48.858;8.252;2024-01-30T10:25:53;101808.09;;;4.26;91.82
46598;BME280;32318;48.858;8.252;2024-01-30T10:33:54;101806.16;;;4.46;91.50
46598;BME280;32318;48.858;8.252;2024-01-30T10:41:56;101800.31;;;4.71;91.14
46598;BME280;32318;48.858;8.252;2024-01-30T10:50:00;101796.53;;;4.91;89.83
46598;BME280;32318;48.858;8.252;2024-01-30T10:58:02;101792.63;;;5.13;88.67
46598;BME280;32318;48.858;8.252;2024-01-30T11:06:03;101777.91;;;5.23;88.28
46598;BME280;32318;48.858;8.252;2024-01-30T11:14:03;101773.47;;;5.38;87.55
46598;BME280;32318;48.858;8.252;2024-01-30T11:22:06;101768.50;;;5.48;87.13
46598;BME280;32318;48.858;8.252;2024-01-30T11:30:07;101772.75;;;5.65;87.09
46598;BME280;32318;48.858;8.252;2024-01-30T11:38:10;101761.59;;;5.89;86.43
46598;BME280;32318;48.858;8.252;2024-01-30T11:46:11;101766.69;;;6.21;85.28
46598;BME280;32318;48.858;8.252;2024-01-30T11:54:17;101761.34;;;6.35;83.71
46598;BME280;32318;48.858;8.252;2024-01-30T12:02:18;101756.66;;;6.53;84.23
46598;BME280;32318;48.858;8.252;2024-01-30T12:10:18;101739.00;;;6.80;84.60
46598;BME280;32318;48.858;8.252;2024-01-30T12:18:19;101722.47;;;7.02;83.50
46598;BME280;32318;48.858;8.252;2024-01-30T12:26:20;101711.22;;;7.24;82.92
46598;BME280;32318;48.858;8.252;2024-01-30T12:34:20;101730.97;;;7.33;82.02
46598;BME280;32318;48.858;8.252;2024-01-30T12:42:21;101727.81;;;7.41;81.53
46598;BME280;32318;48.858;8.252;2024-01-30T12:50:24;101723.97;;;7.58;82.30
46598;BME280;32318;48.858;8.252;2024-01-30T12:58:29;101715.13;;;7.70;82.27
46598;BME280;32318;48.858;8.252;2024-01-30T13:06:29;101717.31;;;7.89;82.40
46598;BME280;32318;48.858;8.252;2024-01-30T13:14:29;101723.66;;;7.99;81.76
46598;BME280;32318;48.858;8.252;2024-01-30T13:22:29;101717.19;;;8.04;81.80
46598;BME280;32318;48.858;8.252;2024-01-30T13:30:30;101730.78;;;8.12;81.54
46598;BME280;32318;48.858;8.252;2024-01-30T13:38:30;101732.78;;;8.21;80.99
46598;BME280;32318;48.858;8.252;2024-01-30T13:46:31;101739.84;;;8.33;80.79
46598;BME280;32318;48.858;8.252;2024-01-30T13:54:31;101732.25;;;8.40;80.25
46598;BME280;32318;48.858;8.252;2024-01-30T14:02:32;101723.94;;;8.45;81.23
46598;BME280;32318;48.858;8.252;2024-01-30T14:10:32;101735.41;;;8.45;81.91
46598;BME280;32318;48.858;8.252;2024-01-30T14:18:32;101728.22;;;8.47;82.37
46598;BME280;32318;48.858;8.252;2024-01-30T14:26:33;101723.94;;;8.45;82.57
46598;BME280;32318;48.858;8.252;2024-01-30T14:34:33;101722.97;;;8.46;82.43
46598;BME280;32318;48.858;8.252;2024-01-30T14:42:34;101722.69;;;8.51;82.61
46598;BME280;32318;48.858;8.252;2024-01-30T14:50:34;101717.56;;;8.47;82.58
46598;BME280;32318;48.858;8.252;2024-01-30T14:58:35;101712.47;;;8.44;82.57
46598;BME280;32318;48.858;8.252;2024-01-30T15:06:36;101720.66;;;8.41;82.64
46598;BME280;32318;48.858;8.252;2024-01-30T15:14:36;101719.91;;;8.39;83.14
46598;BME280;32318;48.858;8.252;2024-01-30T15:22:36;101735.25;;;8.36;83.47
46598;BME280;32318;48.858;8.252;2024-01-30T15:30:37;101734.53;;;8.33;83.46
46598;BME280;32318;48.858;8.252;2024-01-30T15:38:37;101745.50;;;8.29;84.28
46598;BME280;32318;48.858;8.252;2024-01-30T15:46:37;101745.63;;;8.27;84.44
46598;BME280;32318;48.858;8.252;2024-01-30T15:54:38;101756.53;;;8.48;84.59
46598;BME280;32318;48.858;8.252;2024-01-30T16:02:39;101761.25;;;8.69;83.37
46598;BME280;32318;48.858;8.252;2024-01-30T16:10:39;101775.78;;;9.01;83.20
46598;BME280;32318;48.858;8.252;2024-01-30T16:18:39;101780.59;;;9.31;82.73
46598;BME280;32318;48.858;8.252;2024-01-30T16:26:40;101784.47;;;9.50;83.21
46598;BME280;32318;48.858;8.252;2024-01-30T16:34:40;101798.66;;;9.50;80.33
46598;BME280;32318;48.858;8.252;2024-01-30T16:42:41;101801.44;;;9.37;80.93
46598;BME280;32318;48.858;8.252;2024-01-30T16:50:41;101806.38;;;9.31;81.17
46598;BME280;32318;48.858;8.252;2024-01-30T16:58:41;101814.09;;;9.22;80.00
46598;BME280;32318;48.858;8.252;2024-01-30T17:06:42;101815.53;;;9.15;79.57
46598;BME280;32318;48.858;8.252;2024-01-30T17:14:42;101806.22;;;9.21;80.42
46598;BME280;32318;48.858;8.252;2024-01-30T17:22:42;101805.63;;;9.17;81.09
46598;BME280;32318;48.858;8.252;2024-01-30T17:30:43;101819.91;;;9.16;80.20
46598;BME280;32318;48.858;8.252;2024-01-30T17:38:43;101839.66;;;9.14;81.94
46598;BME280;32318;48.858;8.252;2024-01-30T17:46:44;101839.53;;;9.15;82.48
46598;BME280;32318;48.858;8.252;2024-01-30T17:54:44;101850.03;;;9.05;83.83
46598;BME280;32318;48.858;8.252;2024-01-30T18:02:44;101849.84;;;8.95;84.84
46598;BME280;32318;48.858;8.252;2024-01-30T18:10:45;101855.91;;;8.73;85.25
46598;BME280;32318;48.858;8.252;2024-01-30T18:18:45;101865.31;;;8.66;86.53
46598;BME280;32318;48.858;8.252;2024-01-30T18:26:45;101876.16;;;8.63;86.89
46598;BME280;32318;48.858;8.252;2024-01-30T18:34:46;101880.03;;;8.46;88.23
46598;BME280;32318;48.858;8.252;2024-01-30T18:42:46;101875.97;;;8.40;87.97
46598;BME280;32318;48.858;8.252;2024-01-30T18:50:46;101882.72;;;8.20;89.37
46598;BME280;32318;48.858;8.252;2024-01-30T18:58:47;101882.63;;;8.09;90.45
46598;BME280;32318;48.858;8.252;2024-01-30T19:06:47;101874.75;;;7.94;90.24
46598;BME280;32318;48.858;8.252;2024-01-30T19:14:51;101875.50;;;7.83;90.38
46598;BME280;32318;48.858;8.252;2024-01-30T19:22:52;101879.31;;;7.66;89.86
46598;BME280;32318;48.858;8.252;2024-01-30T19:30:59;101902.38;;;7.53;90.09
46598;BME280;32318;48.858;8.252;2024-01-30T19:39:07;101896.78;;;7.30;90.15
46598;BME280;32318;48.858;8.252;2024-01-30T19:56:29;101905.25;;;6.95;90.41
46598;BME280;32318;48.858;8.252;2024-01-30T20:05:14;101919.41;;;6.81;90.68
46598;BME280;32318;48.858;8.252;2024-01-30T20:30:37;101950.81;;;6.60;91.28
46598;BME280;32318;48.858;8.252;2024-01-30T20:38:42;101945.72;;;6.57;92.84
46598;BME280;32318;48.858;8.252;2024-01-30T20:46:48;101950.16;;;6.56;92.87
46598;BME280;32318;48.858;8.252;2024-01-30T20:54:49;101955.28;;;6.59;93.35
46598;BME280;32318;48.858;8.252;2024-01-30T21:02:49;101947.22;;;6.61;93.86
46598;BME280;32318;48.858;8.252;2024-01-30T21:10:49;101946.38;;;6.61;94.53
46598;BME280;32318;48.858;8.252;2024-01-30T21:18:49;101948.75;;;6.65;94.70
46598;BME280;32318;48.858;8.252;2024-01-30T21:26:50;101940.66;;;6.67;94.88
46598;BME280;32318;48.858;8.252;2024-01-30T21:34:51;101946.34;;;6.75;94.90
46598;BME280;32318;48.858;8.252;2024-01-30T21:42:51;101953.06;;;6.81;95.37
46598;BME280;32318;48.858;8.252;2024-01-30T21:50:51;101946.06;;;6.80;95.61
46598;BME280;32318;48.858;8.252;2024-01-30T21:58:52;101944.94;;;6.84;96.00
46598;BME280;32318;48.858;8.252;2024-01-30T22:06:52;101958.75;;;6.89;95.99
46598;BME280;32318;48.858;8.252;2024-01-30T22:14:52;101963.97;;;6.90;96.26
46598;BME280;32318;48.858;8.252;2024-01-30T22:22:52;101968.25;;;6.93;96.34
46598;BME280;32318;48.858;8.252;2024-01-30T22:30:53;101971.84;;;6.92;96.38
46598;BME280;32318;48.858;8.252;2024-01-30T22:38:55;101975.44;;;6.91;96.49
46598;BME280;32318;48.858;8.252;2024-01-30T22:46:55;101980.94;;;6.88;97.26
46598;BME280;32318;48.858;8.252;2024-01-30T22:54:56;101976.88;;;6.82;97.18
46598;BME280;32318;48.858;8.252;2024-01-30T23:02:57;101991.00;;;6.83;97.57
46598;BME280;32318;48.858;8.252;2024-01-30T23:10:57;101985.69;;;6.83;98.29
46598;BME280;32318;48.858;8.252;2024-01-30T23:18:57;101995.38;;;6.84;98.41
46598;BME280;32318;48.858;8.252;2024-01-30T23:26:58;101997.09;;;6.85;98.91
46598;BME280;32318;48.858;8.252;2024-01-30T23:34:58;102004.72;;;6.89;98.75
46598;BME280;32318;48.858;8.252;2024-01-30T23:42:58;101991.38;;;6.91;98.70
46598;BME280;32318;48.858;8.252;2024-01-30T23:50:58;101990.50;;;6.90;98.57
46598;BME280;32318;48.858;8.252;2024-01-30T23:58:59;101989.56;;;6.91;98.79
